Rockwell, NC (28138)

5:14 AM EST on February 23, 2017 (GMT -0500)
RockGrove | | Change Station
Active Advisory: Dense Fog Advisory

Elev 856 ft 35.55 °N, 80.48 °W | Updated 4 minutes ago

Overcast
Overcast
53.3 °F
Feels Like 53.3 °F
N
0.0
Wind Variable Wind from North
Gusts 0.0 mph

Today
High -- | Low -- °F
--% Chance of Precip.
Yesterday
High -- | Low -- °F
Precip. -- in
Pressure 29.92 in
Visibility 1.8 miles
Clouds Mostly Cloudy 100 ft
Mostly Cloudy 2200 ft
Overcast 4700 ft
Dew Point 52 °F
Humidity 95%
Rainfall 0.00 in
Snow Depth Not available.
6:58 AM 6:11 PM
Waning Crescent, 11% visible
METAR KRUQ 230950Z AUTO 00000KT 1 3/4SM BR BKN001 BKN022 OVC047 11/11 A2992 RMK AO2 T01100110
Pressure 29.92 in
Visibility 1.8 miles
Clouds Mostly Cloudy 100 ft
Mostly Cloudy 2200 ft
Overcast 4700 ft
Dew Point 52 °F
Humidity 95%
Rainfall 0.00 in
Snow Depth Not available.
6:58 AM 6:11 PM
Waning Crescent, 11% visible
METAR KRUQ 230950Z AUTO 00000KT 1 3/4SM BR BKN001 BKN022 OVC047 11/11 A2992 RMK AO2 T01100110

Get Your Daily Forecast Email!

Thanks for signing up!

Be on the lookout for a verification email in your inbox.

You'll start receiving the daily forecast at 8 AM.

×

10-Day Weather Forecast

Almanac

Astronomy

Feb. 23, 2017 Rise Set
Actual Time
Civil Twilight
Nautical Twilight
Astronomical Twilight
Moon
Length of Visible Light
Length of Day
Tomorrow will be .
, % of the Moon is Illuminated

Today's Extremes

State Highs State Lows

Community

WunderPhotos

Upload Photos

1,962,540 photos uploaded!

WunderBlog® & News

Nearby

Air Quality

  Air Quality AQ Index Pollutant
Not available.

Snow Depth

Station Depth Elevation

Earthquake Activity

City Distance Mag. Time & Date
Minimum magnitude displayed is 2.5.

Coastal Water Temperatures

Place Temperature

Stations

Nearby Weather Stations

Station Location Temp. Windchill Dew Point Humidity Wind Precip. Elev Updated Type
                   

Watches & Warnings

Dense Fog Advisory
Issued: 2:55 AM EST Feb. 23, 2017 – National Weather Service

... Dense fog advisory in effect until 10 am EST this morning...

The National Weather Service in Greenville-Spartanburg has issued
a dense fog advisory, which is in effect until 10 am EST this
morning.

* Locations... around and north of the I-40 corridor.

* Visibility... one quarter mile or less at times.

* Impacts... limited visibilities will make travel very difficult.

Precautionary/preparedness actions...

A dense fog advisory means visibilities will frequently be
reduced to less than one quarter mile. If driving... slow down...
use your headlights... and leave plenty of distance ahead of you.



40